Time;durP1;ratioP1;P1;durP2;ratioP2;P2;SDS_P1;SDS_P2;PMS_P1;PMS_P2;Temp;Humidity;BMP_temperature;BMP_pressure;BME280_temperature;BME280_humidity;BME280_pressure;Samples;Min_cycle;Max_cycle;Signal;HPM_P1;HPM_P2
2021/07/24 00:01:58;;;;;;;;;17.25;13.50;;;;;25.69;48.71;100372.06;5073835;28;45445;-67
2021/07/24 00:04:23;;;;;;;;;15.00;13.00;;;;;25.70;48.64;100366.50;5073922;28;47718;-67
2021/07/24 00:06:48;;;;;;;;;14.75;11.50;;;;;25.68;48.75;100365.81;5074444;28;51060;-67
2021/07/24 00:09:14;;;;;;;;;14.50;13.25;;;;;25.71;48.57;100378.94;5076575;27;45511;-67
2021/07/24 00:11:40;;;;;;;;;15.00;14.00;;;;;25.69;48.90;100380.13;5073620;27;45625;-66
2021/07/24 00:14:06;;;;;;;;;14.25;11.75;;;;;25.71;49.24;100378.09;5074096;28;45426;-66
2021/07/24 00:16:31;;;;;;;;;19.00;16.25;;;;;25.72;49.50;100377.91;5072929;28;46523;-67
2021/07/24 00:18:56;;;;;;;;;16.25;15.00;;;;;25.70;48.99;100390.72;5074424;27;45531;-67
2021/07/24 00:21:22;;;;;;;;;14.75;13.00;;;;;25.65;49.21;100376.09;5074913;27;47918;-66
2021/07/24 00:23:47;;;;;;;;;14.50;14.00;;;;;25.66;49.11;100408.22;5074594;27;45655;-66
2021/07/24 00:26:14;;;;;;;;;17.75;14.25;;;;;25.57;48.92;100384.19;5073977;27;45260;-67
2021/07/24 00:28:40;;;;;;;;;14.75;12.50;;;;;25.54;49.51;100371.94;5074335;27;45401;-67
2021/07/24 00:31:06;;;;;;;;;14.75;13.00;;;;;25.53;49.75;100381.00;5075019;27;45520;-67
2021/07/24 00:33:31;;;;;;;;;14.25;13.50;;;;;25.49;49.69;100367.06;5074517;27;45358;-66
2021/07/24 00:35:56;;;;;;;;;16.75;14.50;;;;;25.48;49.66;100372.63;5073940;28;46708;-67
2021/07/24 00:38:22;;;;;;;;;17.75;16.00;;;;;25.46;49.86;100396.16;5069445;28;45878;-67
2021/07/24 00:41:03;;;;;;;;;14.75;12.50;;;;;25.43;49.94;100416.16;5073097;27;45730;-67
2021/07/24 00:43:30;;;;;;;;;14.50;12.75;;;;;25.41;49.81;100415.47;5074653;27;45293;-66
2021/07/24 00:45:56;;;;;;;;;14.75;13.50;;;;;25.40;50.08;100405.75;5073698;27;45563;-67
2021/07/24 00:48:23;;;;;;;;;17.00;14.50;;;;;25.35;50.08;100404.56;5073175;27;45606;-66
2021/07/24 00:50:54;;;;;;;;;18.25;15.25;;;;;25.32;50.16;100405.75;5073861;28;45353;-66
2021/07/24 00:53:23;;;;;;;;;14.75;12.50;;;;;25.32;50.06;100405.75;5070810;28;45533;-67
2021/07/24 00:55:50;;;;;;;;;15.25;14.00;;;;;25.34;49.93;100403.72;5071393;27;46506;-66
2021/07/24 00:58:35;;;;;;;;;16.50;14.50;;;;;25.30;50.35;100388.94;5073938;27;45603;-66
2021/07/24 01:01:01;;;;;;;;;17.00;14.25;;;;;25.33;50.34;100387.78;5071644;28;45451;-66
2021/07/24 01:03:26;;;;;;;;;18.75;16.00;;;;;25.26;50.38;100384.91;5072389;28;45502;-66
2021/07/24 01:05:55;;;;;;;;;15.50;14.75;;;;;25.36;50.97;100403.56;5075070;27;46313;-66
2021/07/24 01:08:21;;;;;;;;;15.50;13.00;;;;;25.36;50.38;100404.38;5072541;27;45776;-67
2021/07/24 01:10:47;;;;;;;;;9.50;9.50;;;;;25.36;50.53;100384.72;5073582;27;45707;-66
2021/07/24 01:13:16;;;;;;;;;16.00;12.50;;;;;25.31;51.27;100370.94;5072743;27;45542;-66
2021/07/24 01:15:43;;;;;;;;;19.25;14.00;;;;;25.30;50.61;100374.66;5073476;27;45452;-67
2021/07/24 01:18:09;;;;;;;;;15.25;14.25;;;;;25.25;51.27;100367.91;5074581;27;45746;-66
2021/07/24 01:20:34;;;;;;;;;16.50;14.00;;;;;25.25;51.72;100367.91;5073246;28;45874;-66
2021/07/24 01:23:00;;;;;;;;;17.50;14.25;;;;;25.21;51.70;100369.28;5071527;28;51339;-66
2021/07/24 01:25:25;;;;;;;;;17.00;13.75;;;;;25.22;52.05;100376.34;5073709;28;46345;-66
2021/07/24 01:27:50;;;;;;;;;15.00;13.50;;;;;25.16;51.79;100387.78;5072295;28;58764;-67
2021/07/24 01:30:15;;;;;;;;;17.25;13.75;;;;;25.16;52.14;100392.28;5074824;27;45530;-66
2021/07/24 01:32:41;;;;;;;;;17.50;14.00;;;;;25.13;52.25;100387.28;5073206;27;45601;-66
2021/07/24 01:35:07;;;;;;;;;17.50;15.75;;;;;25.10;52.57;100384.91;5070524;27;56314;-66
2021/07/24 01:37:32;;;;;;;;;14.25;12.00;;;;;25.10;52.80;100387.59;5072217;27;45697;-68
2021/07/24 01:39:57;;;;;;;;;13.75;11.50;;;;;25.09;52.71;100396.69;5073595;28;45365;-66
2021/07/24 01:42:23;;;;;;;;;16.00;15.00;;;;;25.09;52.68;100399.38;5073956;28;45467;-66
2021/07/24 01:44:48;;;;;;;;;19.25;16.50;;;;;25.07;53.26;100393.34;5088539;27;46047;-66
2021/07/24 01:47:13;;;;;;;;;18.25;15.75;;;;;25.04;53.25;100397.16;5072327;27;45557;-66
2021/07/24 01:52:47;;;;;;;;;15.75;14.75;;;;;25.01;54.21;100405.56;5070596;27;45821;-66
2021/07/24 01:55:22;;;;;;;;;15.75;14.50;;;;;25.01;54.14;100391.28;5072189;27;45555;-67
2021/07/24 01:57:49;;;;;;;;;17.00;15.75;;;;;24.93;54.70;100382.19;5072452;27;45552;-66
2021/07/24 02:00:15;;;;;;;;;18.50;13.75;;;;;24.97;55.59;100393.47;5073839;27;45579;-66
2021/07/24 02:02:43;;;;;;;;;13.25;12.00;;;;;24.93;55.50;100394.78;5073331;27;46200;-66
2021/07/24 02:05:18;;;;;;;;;14.50;12.25;;;;;24.91;56.63;100397.66;5071791;27;45520;-67
2021/07/24 02:07:46;;;;;;;;;11.75;10.25;;;;;24.88;56.72;100403.34;5072221;27;45688;-66
2021/07/24 02:10:12;;;;;;;;;15.75;12.50;;;;;24.87;57.40;100404.38;5069966;28;45370;-66
2021/07/24 02:12:38;;;;;;;;;14.50;13.25;;;;;24.80;57.58;100414.13;5071249;28;45525;-66
2021/07/24 02:15:04;;;;;;;;;14.00;12.50;;;;;24.79;57.76;100420.47;5072896;28;46231;-67
2021/07/24 02:17:31;;;;;;;;;13.00;11.00;;;;;24.72;58.22;100428.38;5071853;28;47758;-66
2021/07/24 02:19:58;;;;;;;;;12.75;9.00;;;;;24.70;57.82;100445.66;5071709;27;45688;-67
2021/07/24 02:22:23;;;;;;;;;10.75;9.00;;;;;24.69;57.00;100443.97;5071826;27;45451;-66
2021/07/24 02:24:49;;;;;;;;;11.25;9.50;;;;;24.68;58.17;100443.13;5072849;27;45414;-66
2021/07/24 02:27:14;;;;;;;;;9.75;8.25;;;;;24.70;57.98;100451.88;5074326;27;45895;-66
2021/07/24 02:29:39;;;;;;;;;6.75;6.75;;;;;24.69;56.90;100452.91;5072722;28;45360;-66
2021/07/24 02:32:05;;;;;;;;;8.00;8.00;;;;;24.67;57.38;100446.81;5071292;27;45279;-66
2021/07/24 02:34:30;;;;;;;;;8.00;6.75;;;;;24.66;57.47;100450.53;5072473;27;45522;-66
2021/07/24 02:36:56;;;;;;;;;7.00;5.00;;;;;24.69;57.22;100457.41;5071441;28;45501;-66
2021/07/24 02:39:21;;;;;;;;;6.25;6.25;;;;;24.69;57.65;100455.59;5072379;28;49241;-66
2021/07/24 02:41:46;;;;;;;;;7.25;6.50;;;;;24.72;57.20;100460.63;5073039;27;50170;-66
2021/07/24 02:44:11;;;;;;;;;6.00;6.00;;;;;24.76;57.50;100454.91;5067203;28;66309;-66
2021/07/24 02:46:37;;;;;;;;;11.75;5.25;;;;;24.74;57.03;100433.56;5072238;27;45469;-66
2021/07/24 02:49:03;;;;;;;;;6.00;4.00;;;;;24.75;57.05;100429.06;5071220;28;48176;-67
2021/07/24 02:51:28;;;;;;;;;7.00;6.25;;;;;24.72;57.18;100432.91;5073244;27;45313;-66
2021/07/24 02:53:53;;;;;;;;;5.50;5.50;;;;;24.66;56.85;100431.72;5087735;27;46439;-66
2021/07/24 02:56:19;;;;;;;;;7.00;5.00;;;;;24.63;57.00;100434.72;5072401;27;45301;-67
2021/07/24 02:58:44;;;;;;;;;4.75;4.75;;;;;24.56;56.85;100432.88;5072480;28;49411;-67
2021/07/24 03:01:09;;;;;;;;;6.50;6.00;;;;;24.51;57.09;100441.41;5069276;27;45498;-66
2021/07/24 03:03:36;;;;;;;;;6.00;6.00;;;;;24.45;57.03;100452.81;5070512;27;45377;-66
2021/07/24 03:06:02;;;;;;;;;6.50;6.00;;;;;24.45;57.21;100467.09;5074791;28;45302;-66
2021/07/24 03:08:27;;;;;;;;;5.75;5.00;;;;;24.44;56.76;100481.53;5072062;27;45498;-66
2021/07/24 03:10:53;;;;;;;;;4.00;4.00;;;;;24.39;57.23;100464.22;5071261;27;45558;-66
2021/07/24 03:13:18;;;;;;;;;6.75;5.00;;;;;24.40;57.17;100476.63;5075248;27;46574;-66
2021/07/24 03:15:43;;;;;;;;;9.00;6.25;;;;;24.37;57.47;100466.19;5075332;27;54256;-67
2021/07/24 03:18:08;;;;;;;;;6.50;5.00;;;;;24.37;57.44;100467.03;5077315;27;45470;-66
2021/07/24 03:20:34;;;;;;;;;6.25;5.75;;;;;24.31;57.66;100464.13;5074219;28;46506;-66
2021/07/24 03:23:00;;;;;;;;;4.50;4.50;;;;;24.24;57.58;100455.88;5074697;28;66958;-67
2021/07/24 03:25:27;;;;;;;;;6.25;5.00;;;;;24.16;57.45;100470.09;5075311;28;45319;-66
2021/07/24 03:27:53;;;;;;;;;7.00;5.00;;;;;24.10;57.33;100480.66;5074453;28;45624;-66
2021/07/24 03:30:19;;;;;;;;;7.00;5.00;;;;;24.02;57.53;100500.25;5077150;27;45458;-66
2021/07/24 03:32:44;;;;;;;;;5.50;3.75;;;;;23.90;57.61;100501.50;5073263;28;54797;-66
2021/07/24 03:35:10;;;;;;;;;7.75;4.75;;;;;23.83;57.20;100505.81;5075314;27;45351;-67
2021/07/24 03:37:35;;;;;;;;;4.75;4.75;;;;;23.72;58.07;100496.19;5075386;28;45627;-66
2021/07/24 03:40:00;;;;;;;;;5.25;4.50;;;;;23.68;58.36;100501.00;5075194;27;45464;-66
2021/07/24 03:42:26;;;;;;;;;6.25;6.25;;;;;23.59;58.30;100493.00;5076241;28;46209;-66
2021/07/24 03:44:51;;;;;;;;;6.25;5.50;;;;;23.51;59.35;100514.44;5076527;28;45470;-66
2021/07/24 03:47:16;;;;;;;;;5.50;4.25;;;;;23.42;59.26;100540.31;5074383;28;46860;-66
2021/07/24 03:49:41;;;;;;;;;11.00;6.50;;;;;23.34;59.60;100562.56;5074554;27;45580;-67
2021/07/24 03:52:07;;;;;;;;;6.50;6.50;;;;;23.27;59.33;100566.81;5074099;28;70173;-66
2021/07/24 03:54:33;;;;;;;;;6.50;5.00;;;;;23.22;59.68;100563.75;5075521;27;45391;-66
2021/07/24 03:56:58;;;;;;;;;6.50;6.25;;;;;23.14;59.26;100561.00;5077046;27;45406;-66
2021/07/24 03:59:23;;;;;;;;;7.50;5.25;;;;;23.05;59.80;100565.41;5074731;28;45416;-66
2021/07/24 04:01:51;;;;;;;;;5.00;4.25;;;;;22.99;59.19;100581.28;5074262;28;46456;-66
2021/07/24 04:04:17;;;;;;;;;5.25;5.25;;;;;22.95;59.54;100563.78;5074963;28;45349;-66
2021/07/24 04:06:43;;;;;;;;;6.25;4.50;;;;;22.90;59.86;100577.63;5075488;27;45364;-67
2021/07/24 04:09:09;;;;;;;;;5.75;5.75;;;;;22.86;60.20;100585.09;5076853;27;45508;-66
2021/07/24 04:11:35;;;;;;;;;6.25;6.25;;;;;22.82;60.21;100602.47;5072999;28;46057;-66
2021/07/24 04:14:02;;;;;;;;;7.00;6.00;;;;;22.79;59.59;100596.56;5075092;27;45385;-67
2021/07/24 04:16:28;;;;;;;;;5.50;5.00;;;;;22.75;60.84;100577.25;5074432;27;45461;-66
2021/07/24 04:18:54;;;;;;;;;4.25;4.25;;;;;22.72;60.76;100577.56;5074141;27;45327;-67
2021/07/24 04:21:20;;;;;;;;;5.50;4.75;;;;;22.67;61.85;100594.09;5076095;27;46818;-66
2021/07/24 04:23:45;;;;;;;;;4.75;4.75;;;;;22.57;62.07;100597.78;5073477;28;45457;-66
2021/07/24 04:26:11;;;;;;;;;6.00;6.00;;;;;22.53;61.46;100586.50;5073349;28;45471;-66
2021/07/24 04:28:36;;;;;;;;;4.25;4.25;;;;;22.49;61.09;100587.78;5073230;27;45638;-66
2021/07/24 04:31:02;;;;;;;;;6.25;5.00;;;;;22.44;61.32;100587.38;5074118;27;45537;-66
2021/07/24 04:33:27;;;;;;;;;6.75;4.75;;;;;22.36;61.40;100588.13;5075136;27;45377;-66
2021/07/24 04:35:52;;;;;;;;;5.00;5.00;;;;;22.31;61.57;100585.03;5075929;28;45352;-66
2021/07/24 04:38:18;;;;;;;;;6.25;4.75;;;;;22.30;61.53;100585.19;5074301;28;45416;-66
2021/07/24 04:40:45;;;;;;;;;5.25;5.25;;;;;22.31;61.46;100598.44;5074068;28;45604;-66
2021/07/24 04:43:10;;;;;;;;;5.25;5.00;;;;;22.29;61.87;100599.56;5074406;28;45342;-66
2021/07/24 04:45:40;;;;;;;;;6.00;4.50;;;;;22.27;61.71;100594.34;5073870;27;45562;-66
2021/07/24 04:48:05;;;;;;;;;7.75;6.50;;;;;22.26;62.36;100598.03;5076496;28;45423;-66
2021/07/24 04:50:31;;;;;;;;;6.00;4.75;;;;;22.26;61.76;100608.72;5072747;28;46431;-67
2021/07/24 04:52:56;;;;;;;;;6.50;5.25;;;;;22.25;62.02;100601.69;5073872;27;54043;-66
2021/07/24 04:55:24;;;;;;;;;6.50;6.50;;;;;22.30;62.78;100614.66;5074503;27;45433;-66
2021/07/24 04:57:50;;;;;;;;;8.50;7.25;;;;;22.33;62.10;100609.00;5074295;27;45520;-66
2021/07/24 05:00:16;;;;;;;;;8.00;5.75;;;;;22.35;62.59;100625.78;5075642;27;46273;-66
2021/07/24 05:02:45;;;;;;;;;6.50;5.75;;;;;22.30;62.75;100625.34;5074248;27;45796;-66
2021/07/24 05:05:10;;;;;;;;;5.00;5.00;;;;;22.25;63.70;100625.78;5074073;27;45438;-66
2021/07/24 05:07:36;;;;;;;;;6.25;5.75;;;;;22.22;63.47;100635.94;5072778;27;45536;-67
2021/07/24 05:10:08;;;;;;;;;7.00;6.25;;;;;22.20;63.14;100645.94;5073657;27;46574;-66
2021/07/24 05:12:33;;;;;;;;;9.75;7.00;;;;;22.19;64.03;100645.09;5072537;27;45388;-66
2021/07/24 05:14:58;;;;;;;;;11.00;7.25;;;;;22.23;63.77;100645.63;5075203;28;45831;-66
2021/07/24 05:17:24;;;;;;;;;9.50;7.25;;;;;22.25;63.42;100636.50;5073569;28;45497;-66
2021/07/24 05:19:49;;;;;;;;;7.00;7.00;;;;;22.26;63.76;100638.19;5072905;28;55866;-67
2021/07/24 05:22:14;;;;;;;;;8.25;6.00;;;;;22.29;63.78;100642.38;5073609;28;49005;-66
2021/07/24 05:24:45;;;;;;;;;7.75;7.75;;;;;22.32;63.69;100653.66;5073747;27;45335;-66
2021/07/24 05:27:12;;;;;;;;;6.25;6.00;;;;;22.39;63.67;100648.56;5075867;27;45384;-66
2021/07/24 05:29:38;;;;;;;;;6.75;5.75;;;;;22.41;64.61;100638.56;5071159;27;45460;-67
2021/07/24 05:32:03;;;;;;;;;9.00;7.00;;;;;22.40;63.77;100645.75;5073387;28;45477;-66
2021/07/24 05:34:29;;;;;;;;;10.25;8.50;;;;;22.39;64.18;100646.75;5073478;27;45548;-66
2021/07/24 05:36:54;;;;;;;;;8.00;6.50;;;;;22.41;63.63;100646.59;5073069;27;56050;-66
2021/07/24 05:39:19;;;;;;;;;8.00;6.75;;;;;22.38;63.58;100638.84;5074877;27;46203;-66
2021/07/24 05:41:45;;;;;;;;;6.25;6.25;;;;;22.35;63.35;100642.69;5074210;28;45401;-67
2021/07/24 05:44:13;;;;;;;;;9.25;6.75;;;;;22.37;63.52;100645.19;5072955;28;45366;-66
2021/07/24 05:46:38;;;;;;;;;8.50;7.00;;;;;22.44;63.63;100640.94;5073164;27;45354;-66
2021/07/24 05:49:05;;;;;;;;;9.50;7.50;;;;;22.57;63.77;100633.44;5073917;28;46667;-67
2021/07/24 05:51:30;;;;;;;;;6.75;6.75;;;;;22.53;63.27;100629.38;5073047;27;45318;-66
2021/07/24 05:53:55;;;;;;;;;6.75;5.75;;;;;22.59;63.26;100636.81;5074727;28;45628;-66
2021/07/24 05:56:21;;;;;;;;;7.25;5.75;;;;;22.57;63.29;100636.13;5073483;28;45641;-67
2021/07/24 05:58:46;;;;;;;;;8.50;8.00;;;;;22.59;63.59;100626.09;5072564;27;46264;-66
2021/07/24 06:01:12;;;;;;;;;8.50;7.50;;;;;22.76;62.61;100639.72;5072905;27;50477;-66
2021/07/24 06:03:38;;;;;;;;;7.50;7.50;;;;;22.85;62.99;100638.84;5073585;27;45538;-66
2021/07/24 06:06:03;;;;;;;;;9.50;6.50;;;;;22.95;62.50;100636.16;5075325;27;45620;-66
2021/07/24 06:08:29;;;;;;;;;8.50;7.00;;;;;23.05;62.83;100629.75;5071318;28;46260;-66
2021/07/24 06:11:00;;;;;;;;;7.00;6.25;;;;;23.04;62.39;100620.03;5072987;28;45408;-66
2021/07/24 06:13:29;;;;;;;;;4.50;4.50;;;;;23.09;62.57;100603.50;5072905;27;45392;-66
2021/07/24 06:15:56;;;;;;;;;5.25;5.25;;;;;23.28;61.52;100618.59;5073103;27;45431;-66
2021/07/24 06:18:21;;;;;;;;;7.75;6.00;;;;;23.36;61.83;100605.31;5074295;28;45483;-66
2021/07/24 06:20:48;;;;;;;;;7.75;6.25;;;;;23.50;60.87;100623.56;5073166;27;45563;-66
2021/07/24 06:23:15;;;;;;;;;7.50;7.00;;;;;23.50;61.35;100618.19;5073003;27;45433;-66
2021/07/24 06:25:41;;;;;;;;;7.25;6.50;;;;;23.53;60.76;100617.03;5071586;27;45307;-66
2021/07/24 06:28:06;;;;;;;;;9.75;7.25;;;;;23.57;60.73;100618.41;5072261;27;45465;-66
2021/07/24 06:30:33;;;;;;;;;7.75;5.75;;;;;23.73;60.96;100625.81;5072250;27;49217;-66
2021/07/24 06:32:59;;;;;;;;;8.25;6.75;;;;;23.90;60.14;100631.16;5073259;28;45448;-66
2021/07/24 06:35:24;;;;;;;;;8.25;5.00;;;;;23.98;59.63;100630.41;5072043;28;54546;-66
2021/07/24 06:37:51;;;;;;;;;7.25;5.00;;;;;24.00;59.22;100622.19;5072034;28;60873;-66
2021/07/24 06:40:17;;;;;;;;;4.25;4.25;;;;;23.94;59.66;100620.97;5072527;28;45464;-66
2021/07/24 06:42:42;;;;;;;;;7.50;5.50;;;;;23.99;59.17;100626.72;5072313;27;45839;-66
2021/07/24 06:45:08;;;;;;;;;5.00;5.00;;;;;24.04;59.05;100629.78;5074394;28;50933;-66
2021/07/24 06:47:33;;;;;;;;;8.00;6.00;;;;;24.12;58.89;100627.16;5073024;27;46118;-66
2021/07/24 06:49:58;;;;;;;;;6.00;5.50;;;;;24.17;58.74;100632.91;5075402;27;45394;-66
2021/07/24 06:52:24;;;;;;;;;8.75;5.00;;;;;24.12;57.93;100637.91;5074680;28;45414;-66
2021/07/24 06:54:49;;;;;;;;;5.75;4.50;;;;;24.08;58.82;100633.00;5075781;27;45373;-66
2021/07/24 06:57:15;;;;;;;;;4.50;3.25;;;;;24.08;57.90;100639.22;5077517;27;46451;-66
2021/07/24 06:59:40;;;;;;;;;5.75;4.00;;;;;24.08;58.42;100633.84;5076133;28;45386;-66
2021/07/24 07:02:06;;;;;;;;;5.00;5.00;;;;;24.22;58.42;100624.34;5075567;28;47824;-66
2021/07/24 07:04:32;;;;;;;;;7.00;6.75;;;;;24.39;58.13;100633.44;5074657;27;45403;-66
2021/07/24 07:06:57;;;;;;;;;4.75;3.75;;;;;24.56;56.38;100635.22;5075967;27;47225;-66
2021/07/24 07:09:23;;;;;;;;;5.75;5.50;;;;;24.50;56.77;100626.94;5077314;27;45469;-66
2021/07/24 07:11:48;;;;;;;;;5.00;5.00;;;;;24.43;56.64;100624.03;5076074;27;45602;-66
2021/07/24 07:14:13;;;;;;;;;6.50;5.00;;;;;24.48;57.16;100632.47;5074866;27;45405;-66
2021/07/24 07:16:38;;;;;;;;;5.50;4.75;;;;;24.73;57.10;100622.69;5075249;27;55593;-66
2021/07/24 07:19:06;;;;;;;;;6.00;5.50;;;;;25.21;55.77;100621.22;5074930;28;64634;-66
2021/07/24 07:21:31;;;;;;;;;6.25;5.25;;;;;25.20;55.51;100630.31;5075908;27;45424;-66
2021/07/24 07:23:57;;;;;;;;;10.00;7.00;;;;;25.15;55.91;100617.34;5077601;28;45406;-66
2021/07/24 07:26:28;;;;;;;;;5.50;4.50;;;;;25.06;55.30;100626.41;5072900;28;64245;-66
2021/07/24 07:28:55;;;;;;;;;6.50;5.00;;;;;25.04;55.71;100622.16;5075296;27;45386;-66
2021/07/24 07:31:21;;;;;;;;;7.00;5.00;;;;;25.11;55.54;100629.47;5075885;28;45355;-66
2021/07/24 07:33:46;;;;;;;;;8.50;6.00;;;;;25.20;54.76;100620.41;5075418;28;45437;-66
2021/07/24 07:36:11;;;;;;;;;7.25;4.00;;;;;25.30;54.50;100631.03;5077155;27;46324;-66
2021/07/24 07:38:37;;;;;;;;;4.00;4.00;;;;;25.50;55.05;100637.78;5069978;28;62256;-66
2021/07/24 07:41:02;;;;;;;;;5.25;4.25;;;;;25.70;54.38;100637.50;5074735;27;45387;-66
2021/07/24 07:43:27;;;;;;;;;7.75;4.50;;;;;25.85;53.17;100632.34;5073414;27;45547;-66
2021/07/24 07:45:52;;;;;;;;;5.00;3.75;;;;;25.94;53.15;100632.16;5073969;28;66702;-67
2021/07/24 07:48:18;;;;;;;;;6.00;5.00;;;;;26.39;53.42;100632.63;5076493;27;45510;-66
2021/07/24 07:50:43;;;;;;;;;6.50;6.00;;;;;26.68;52.45;100634.78;5074820;27;45491;-66
2021/07/24 07:53:09;;;;;;;;;4.75;4.00;;;;;26.97;52.11;100628.78;5074708;28;45485;-66
2021/07/24 07:55:36;;;;;;;;;4.50;4.00;;;;;27.39;51.90;100632.97;5074942;27;46385;-66
2021/07/24 07:58:09;;;;;;;;;5.25;4.00;;;;;27.64;50.89;100631.81;5074650;27;45429;-66
2021/07/24 08:00:34;;;;;;;;;5.50;3.75;;;;;27.76;50.36;100633.09;5075232;27;45541;-66
2021/07/24 08:03:00;;;;;;;;;6.25;3.75;;;;;28.20;50.06;100634.28;5077110;27;45275;-67
2021/07/24 08:05:26;;;;;;;;;4.00;4.00;;;;;28.63;48.15;100629.13;5073415;27;46119;-67
2021/07/24 08:07:51;;;;;;;;;5.25;4.00;;;;;28.81;47.55;100627.72;5074584;27;45295;-68
2021/07/24 08:10:16;;;;;;;;;8.00;4.00;;;;;29.35;46.92;100626.56;5074325;28;53779;-66
2021/07/24 08:12:42;;;;;;;;;4.75;3.75;;;;;30.33;46.12;100633.13;5074170;27;45517;-66
2021/07/24 08:15:08;;;;;;;;;4.00;4.00;;;;;30.72;44.39;100632.59;5076304;27;46382;-67
2021/07/24 08:17:33;;;;;;;;;5.00;4.50;;;;;30.70;43.16;100626.53;5074237;27;45488;-66
2021/07/24 08:19:58;;;;;;;;;5.25;5.00;;;;;30.80;42.95;100631.59;5074426;27;45434;-66
2021/07/24 08:22:24;;;;;;;;;4.75;4.75;;;;;31.68;44.39;100622.50;5073318;27;45544;-67
2021/07/24 08:24:49;;;;;;;;;2.25;2.00;;;;;32.99;42.56;100621.81;5073551;27;46563;-66
2021/07/24 08:27:14;;;;;;;;;5.25;4.25;;;;;34.52;42.37;100616.19;5076902;27;45476;-66
2021/07/24 08:29:40;;;;;;;;;6.75;4.50;;;;;36.79;39.68;100626.25;5074413;27;47844;-67
2021/07/24 08:32:09;;;;;;;;;3.00;1.25;;;;;38.34;36.10;100626.97;5074242;28;45353;-66
2021/07/24 08:34:34;;;;;;;;;3.00;2.00;;;;;38.87;35.33;100625.50;5074361;27;45517;-66
2021/07/24 08:36:59;;;;;;;;;2.50;2.25;;;;;39.52;33.63;100618.25;5073939;27;45293;-67
2021/07/24 08:39:25;;;;;;;;;4.50;4.50;;;;;39.94;34.63;100618.41;5075151;28;52689;-66
2021/07/24 08:41:50;;;;;;;;;3.00;3.00;;;;;39.67;32.43;100621.19;5075270;27;45463;-67
2021/07/24 08:44:15;;;;;;;;;2.75;1.25;;;;;40.02;32.82;100614.31;5072082;28;56177;-67
2021/07/24 08:46:41;;;;;;;;;1.25;1.25;;;;;40.03;31.76;100613.22;5074420;27;45497;-67
2021/07/24 08:49:06;;;;;;;;;2.00;2.00;;;;;40.79;28.59;100612.91;5073712;28;45425;-67
2021/07/24 08:51:35;;;;;;;;;5.25;3.50;;;;;42.09;28.81;100612.59;5074164;27;45371;-67
2021/07/24 08:54:01;;;;;;;;;1.75;0.00;;;;;43.68;25.91;100621.06;5073908;28;46201;-67
2021/07/24 08:56:31;;;;;;;;;1.75;1.75;;;;;45.11;25.94;100620.41;5073919;27;46127;-67
2021/07/24 08:58:59;;;;;;;;;2.50;2.50;;;;;46.82;24.55;100616.81;5074236;27;45433;-67
2021/07/24 09:01:25;;;;;;;;;2.25;2.00;;;;;48.40;23.91;100628.03;5072578;27;45379;-67
2021/07/24 09:03:52;;;;;;;;;2.25;2.25;;;;;49.48;22.62;100627.28;5073951;27;45446;-67
2021/07/24 09:06:21;;;;;;;;;1.75;1.75;;;;;49.92;21.04;100624.47;5075671;27;45302;-67
2021/07/24 09:08:51;;;;;;;;;2.00;1.00;;;;;48.96;19.01;100627.22;5072657;28;45425;-67
2021/07/24 09:11:19;;;;;;;;;3.50;2.75;;;;;47.39;21.40;100624.78;5073538;27;45463;-67
2021/07/24 09:13:44;;;;;;;;;2.50;1.50;;;;;46.77;22.05;100630.84;5073627;28;46476;-67
2021/07/24 09:16:09;;;;;;;;;2.25;2.25;;;;;46.04;22.26;100640.84;5073762;28;45394;-67
2021/07/24 09:18:37;;;;;;;;;2.00;2.00;;;;;45.28;22.51;100637.34;5073347;27;45294;-67
2021/07/24 09:21:02;;;;;;;;;1.00;1.00;;;;;44.24;23.42;100637.22;5075104;27;45299;-67
2021/07/24 09:23:33;;;;;;;;;2.25;2.25;;;;;43.46;23.56;100635.34;5071993;27;46062;-67
2021/07/24 09:26:00;;;;;;;;;3.25;3.25;;;;;42.32;23.53;100630.53;5073564;27;45514;-67
2021/07/24 09:28:26;;;;;;;;;5.75;3.00;;;;;41.43;24.28;100631.88;5073769;27;45480;-67
2021/07/24 09:30:52;;;;;;;;;4.75;3.25;;;;;40.56;25.32;100625.19;5073654;28;45541;-67
2021/07/24 09:33:19;;;;;;;;;3.50;2.00;;;;;40.39;26.75;100623.41;5075541;27;46296;-67
2021/07/24 09:35:45;;;;;;;;;2.00;2.00;;;;;40.41;26.51;100620.41;5071832;27;45791;-67
2021/07/24 09:38:26;;;;;;;;;4.50;2.00;;;;;40.11;27.25;100630.13;5073498;28;45464;-67
2021/07/24 09:40:52;;;;;;;;;2.00;1.00;;;;;39.81;27.02;100625.16;5072085;27;45471;-67
2021/07/24 09:43:42;;;;;;;;;2.75;2.75;;;;;39.19;26.49;100625.63;5072834;27;46096;-67
2021/07/24 09:46:14;;;;;;;;;3.75;3.00;;;;;38.25;27.75;100621.03;5059871;28;45639;-67
2021/07/24 09:48:44;;;;;;;;;3.25;2.50;;;;;37.84;28.77;100628.63;5073457;27;45299;-67
2021/07/24 09:51:10;;;;;;;;;0.50;0.50;;;;;37.95;28.62;100631.53;5074451;28;45511;-67
2021/07/24 09:53:45;;;;;;;;;2.50;2.00;;;;;38.04;29.62;100636.34;5073068;28;46080;-67
2021/07/24 09:56:19;;;;;;;;;2.00;1.75;;;;;38.07;28.73;100630.38;5073311;27;54040;-67
2021/07/24 09:58:46;;;;;;;;;2.00;1.50;;;;;37.89;29.53;100633.34;5073185;27;45225;-67
2021/07/24 10:01:15;;;;;;;;;3.00;2.00;;;;;37.95;29.34;100634.28;5071247;27;45535;-67
2021/07/24 10:03:41;;;;;;;;;4.00;2.00;;;;;38.08;29.78;100632.03;5072630;27;45448;-67
2021/07/24 10:06:12;;;;;;;;;2.00;2.00;;;;;38.05;28.80;100634.44;5074748;27;45651;-67
2021/07/24 10:08:39;;;;;;;;;3.00;2.50;;;;;37.86;29.54;100620.97;5073134;27;45622;-67
2021/07/24 10:11:05;;;;;;;;;5.75;3.75;;;;;37.81;29.38;100637.31;5073065;27;45400;-67
2021/07/24 10:13:31;;;;;;;;;4.00;4.00;;;;;37.48;28.70;100632.59;5073244;27;46349;-67
2021/07/24 10:15:56;;;;;;;;;5.00;3.00;;;;;37.30;30.51;100641.84;5073211;27;45520;-67
2021/07/24 10:18:22;;;;;;;;;4.00;1.50;;;;;37.25;30.48;100640.91;5074286;27;45837;-67
2021/07/24 10:20:50;;;;;;;;;3.50;3.50;;;;;37.06;31.01;100635.59;5073039;27;45479;-67
2021/07/24 10:23:25;;;;;;;;;5.75;3.75;;;;;37.12;30.51;100638.44;5076354;27;45533;-67
2021/07/24 10:26:00;;;;;;;;;1.50;1.50;;;;;36.81;30.86;100644.13;5076525;27;45523;-67
2021/07/24 10:28:35;;;;;;;;;1.75;1.75;;;;;36.35;30.89;100642.25;5076931;27;45494;-67
2021/07/24 10:31:13;;;;;;;;;2.00;1.00;;;;;35.92;30.73;100637.91;5076661;27;45627;-67
2021/07/24 10:33:39;;;;;;;;;4.75;2.00;;;;;35.92;31.10;100621.47;5075114;27;45703;-67
2021/07/24 10:36:15;;;;;;;;;6.50;3.75;;;;;36.01;31.12;100628.28;5078296;27;45392;-67
2021/07/24 10:39:11;;;;;;;;;3.00;2.00;;;;;36.17;30.86;100628.66;5076151;27;45553;-68
2021/07/24 10:41:40;;;;;;;;;3.50;2.75;;;;;36.20;31.54;100626.28;5073285;27;46170;-67
2021/07/24 10:44:10;;;;;;;;;2.50;2.50;;;;;36.22;30.62;100624.13;5074503;27;45343;-67
2021/07/24 10:46:44;;;;;;;;;6.00;3.00;;;;;36.12;31.73;100623.06;5073117;28;45327;-67
2021/07/24 10:49:19;;;;;;;;;6.75;4.00;;;;;35.88;31.42;100622.19;5075827;27;45480;-67
2021/07/24 10:52:03;;;;;;;;;1.50;1.00;;;;;35.63;31.91;100616.91;5076154;28;45361;-66
2021/07/24 10:54:30;;;;;;;;;4.75;2.50;;;;;35.45;31.88;100612.34;5073002;28;46531;-67
2021/07/24 10:56:58;;;;;;;;;2.00;1.50;;;;;35.32;31.63;100599.66;5077144;28;45569;-66
2021/07/24 10:59:24;;;;;;;;;2.25;2.25;;;;;35.02;31.80;100603.19;5074317;27;45385;-67
2021/07/24 11:01:57;;;;;;;;;2.50;2.00;;;;;34.97;32.89;100607.69;5074491;27;45287;-67
2021/07/24 11:04:38;;;;;;;;;2.75;1.75;;;;;35.06;31.90;100614.50;5074401;27;45693;-67
2021/07/24 11:07:15;;;;;;;;;1.25;1.25;;;;;34.95;32.33;100601.63;5074808;28;45796;-67
2021/07/24 11:09:44;;;;;;;;;3.25;2.75;;;;;34.71;32.60;100604.19;5075885;27;45283;-67
2021/07/24 11:12:16;;;;;;;;;3.00;2.75;;;;;34.38;32.77;100609.97;5075641;28;45714;-67
2021/07/24 11:14:49;;;;;;;;;2.00;0.75;;;;;34.09;33.13;100608.81;5072155;27;46699;-67
2021/07/24 11:17:18;;;;;;;;;1.25;1.25;;;;;33.76;32.28;100617.22;5075274;27;45256;-67
2021/07/24 11:20:05;;;;;;;;;1.00;1.00;;;;;33.34;33.00;100616.81;5074901;27;45440;-67
2021/07/24 11:22:32;;;;;;;;;1.75;1.75;;;;;33.00;33.55;100615.34;5063672;28;45411;-66
2021/07/24 11:24:57;;;;;;;;;2.50;2.00;;;;;32.91;33.98;100608.44;5074546;27;47384;-67